sensor_id;sensor_type;location;lat;lon;timestamp;P1;durP1;ratioP1;P2;durP2;ratioP2
12383;SDS011;6256;63.808;20.336;2022-09-27T00:01:14;2.30;;;2.10;;
12383;SDS011;6256;63.808;20.336;2022-09-27T00:03:40;2.37;;;2.00;;
12383;SDS011;6256;63.808;20.336;2022-09-27T00:06:07;3.37;;;2.10;;
12383;SDS011;6256;63.808;20.336;2022-09-27T00:08:36;2.93;;;2.40;;
12383;SDS011;6256;63.808;20.336;2022-09-27T00:11:03;2.30;;;2.10;;
12383;SDS011;6256;63.808;20.336;2022-09-27T00:13:30;3.57;;;2.60;;
12383;SDS011;6256;63.808;20.336;2022-09-27T00:16:00;2.70;;;2.37;;
12383;SDS011;6256;63.808;20.336;2022-09-27T00:18:30;3.00;;;2.30;;
12383;SDS011;6256;63.808;20.336;2022-09-27T00:21:07;3.93;;;2.50;;
12383;SDS011;6256;63.808;20.336;2022-09-27T00:23:35;4.93;;;2.30;;
12383;SDS011;6256;63.808;20.336;2022-09-27T00:26:01;2.47;;;2.23;;
12383;SDS011;6256;63.808;20.336;2022-09-27T00:28:27;3.63;;;2.67;;
12383;SDS011;6256;63.808;20.336;2022-09-27T00:30:55;2.40;;;2.00;;
12383;SDS011;6256;63.808;20.336;2022-09-27T00:33:21;2.60;;;2.37;;
12383;SDS011;6256;63.808;20.336;2022-09-27T00:35:47;2.97;;;2.27;;
12383;SDS011;6256;63.808;20.336;2022-09-27T00:38:12;4.27;;;2.10;;
12383;SDS011;6256;63.808;20.336;2022-09-27T00:40:38;2.40;;;2.20;;
12383;SDS011;6256;63.808;20.336;2022-09-27T00:43:22;3.03;;;2.50;;
12383;SDS011;6256;63.808;20.336;2022-09-27T00:45:58;3.00;;;2.30;;
12383;SDS011;6256;63.808;20.336;2022-09-27T00:48:28;3.23;;;2.47;;
12383;SDS011;6256;63.808;20.336;2022-09-27T00:51:00;2.83;;;2.10;;
12383;SDS011;6256;63.808;20.336;2022-09-27T00:53:40;2.97;;;2.47;;
12383;SDS011;6256;63.808;20.336;2022-09-27T00:56:11;3.10;;;2.40;;
12383;SDS011;6256;63.808;20.336;2022-09-27T00:58:43;3.20;;;2.23;;
12383;SDS011;6256;63.808;20.336;2022-09-27T01:01:14;2.90;;;2.30;;
12383;SDS011;6256;63.808;20.336;2022-09-27T01:03:55;2.50;;;2.30;;
12383;SDS011;6256;63.808;20.336;2022-09-27T01:06:29;2.60;;;2.20;;
12383;SDS011;6256;63.808;20.336;2022-09-27T01:08:55;2.83;;;2.50;;
12383;SDS011;6256;63.808;20.336;2022-09-27T01:22:02;2.67;;;2.13;;
12383;SDS011;6256;63.808;20.336;2022-09-27T01:27:50;4.70;;;2.77;;
12383;SDS011;6256;63.808;20.336;2022-09-27T01:33:17;3.67;;;2.60;;
12383;SDS011;6256;63.808;20.336;2022-09-27T01:35:57;3.17;;;2.70;;
12383;SDS011;6256;63.808;20.336;2022-09-27T01:44:05;6.30;;;2.97;;
12383;SDS011;6256;63.808;20.336;2022-09-27T01:46:40;3.20;;;2.50;;
12383;SDS011;6256;63.808;20.336;2022-09-27T01:49:11;4.10;;;2.60;;
12383;SDS011;6256;63.808;20.336;2022-09-27T01:51:44;4.80;;;2.60;;
12383;SDS011;6256;63.808;20.336;2022-09-27T01:54:21;3.63;;;2.70;;
12383;SDS011;6256;63.808;20.336;2022-09-27T01:56:54;4.23;;;2.67;;
12383;SDS011;6256;63.808;20.336;2022-09-27T01:59:32;4.33;;;3.23;;
12383;SDS011;6256;63.808;20.336;2022-09-27T02:02:07;5.00;;;2.80;;
12383;SDS011;6256;63.808;20.336;2022-09-27T02:04:36;3.33;;;2.87;;
12383;SDS011;6256;63.808;20.336;2022-09-27T02:07:07;3.10;;;2.70;;
12383;SDS011;6256;63.808;20.336;2022-09-27T02:09:39;4.60;;;3.03;;
12383;SDS011;6256;63.808;20.336;2022-09-27T02:12:13;3.90;;;2.70;;
12383;SDS011;6256;63.808;20.336;2022-09-27T02:14:57;5.93;;;3.00;;
12383;SDS011;6256;63.808;20.336;2022-09-27T02:22:53;4.70;;;2.70;;
12383;SDS011;6256;63.808;20.336;2022-09-27T02:25:41;3.77;;;3.10;;
12383;SDS011;6256;63.808;20.336;2022-09-27T02:30:44;6.30;;;2.90;;
12383;SDS011;6256;63.808;20.336;2022-09-27T02:33:10;4.67;;;2.57;;
12383;SDS011;6256;63.808;20.336;2022-09-27T02:35:36;4.73;;;3.23;;
12383;SDS011;6256;63.808;20.336;2022-09-27T02:38:02;6.03;;;3.17;;
12383;SDS011;6256;63.808;20.336;2022-09-27T02:40:30;7.70;;;3.27;;
12383;SDS011;6256;63.808;20.336;2022-09-27T02:43:10;3.93;;;2.60;;
12383;SDS011;6256;63.808;20.336;2022-09-27T02:45:41;6.43;;;3.00;;
12383;SDS011;6256;63.808;20.336;2022-09-27T02:57:29;5.37;;;4.83;;
12383;SDS011;6256;63.808;20.336;2022-09-27T03:00:19;5.23;;;3.70;;
12383;SDS011;6256;63.808;20.336;2022-09-27T03:03:30;7.67;;;4.47;;
12383;SDS011;6256;63.808;20.336;2022-09-27T03:05:44;6.00;;;3.67;;
12383;SDS011;6256;63.808;20.336;2022-09-27T03:08:14;5.17;;;3.30;;
12383;SDS011;6256;63.808;20.336;2022-09-27T03:10:40;4.20;;;2.87;;
12383;SDS011;6256;63.808;20.336;2022-09-27T03:13:06;4.93;;;3.03;;
12383;SDS011;6256;63.808;20.336;2022-09-27T03:15:32;4.43;;;3.47;;
12383;SDS011;6256;63.808;20.336;2022-09-27T03:17:58;4.33;;;3.50;;
12383;SDS011;6256;63.808;20.336;2022-09-27T03:20:24;4.23;;;3.33;;
12383;SDS011;6256;63.808;20.336;2022-09-27T03:22:50;5.63;;;3.40;;
12383;SDS011;6256;63.808;20.336;2022-09-27T03:25:15;5.60;;;3.00;;
12383;SDS011;6256;63.808;20.336;2022-09-27T03:27:42;5.80;;;3.03;;
12383;SDS011;6256;63.808;20.336;2022-09-27T03:30:09;3.43;;;2.83;;
12383;SDS011;6256;63.808;20.336;2022-09-27T03:32:36;2.87;;;2.50;;
12383;SDS011;6256;63.808;20.336;2022-09-27T03:35:02;3.10;;;2.77;;
12383;SDS011;6256;63.808;20.336;2022-09-27T03:37:27;3.60;;;3.00;;
12383;SDS011;6256;63.808;20.336;2022-09-27T03:39:53;3.03;;;2.30;;
12383;SDS011;6256;63.808;20.336;2022-09-27T03:42:19;2.87;;;2.30;;
12383;SDS011;6256;63.808;20.336;2022-09-27T03:44:45;3.27;;;2.40;;
12383;SDS011;6256;63.808;20.336;2022-09-27T03:47:11;2.63;;;1.97;;
12383;SDS011;6256;63.808;20.336;2022-09-27T03:49:37;5.03;;;2.50;;
12383;SDS011;6256;63.808;20.336;2022-09-27T03:52:02;3.00;;;2.70;;
12383;SDS011;6256;63.808;20.336;2022-09-27T03:54:28;3.23;;;2.20;;
12383;SDS011;6256;63.808;20.336;2022-09-27T03:56:54;4.67;;;2.10;;
12383;SDS011;6256;63.808;20.336;2022-09-27T03:59:19;3.20;;;2.40;;
12383;SDS011;6256;63.808;20.336;2022-09-27T04:01:45;3.27;;;2.33;;
12383;SDS011;6256;63.808;20.336;2022-09-27T04:04:11;2.27;;;1.80;;
12383;SDS011;6256;63.808;20.336;2022-09-27T04:06:37;2.53;;;2.23;;
12383;SDS011;6256;63.808;20.336;2022-09-27T04:09:03;4.73;;;2.43;;
12383;SDS011;6256;63.808;20.336;2022-09-27T04:11:28;2.83;;;1.97;;
12383;SDS011;6256;63.808;20.336;2022-09-27T04:13:54;3.63;;;2.33;;
12383;SDS011;6256;63.808;20.336;2022-09-27T04:16:20;2.70;;;1.90;;
12383;SDS011;6256;63.808;20.336;2022-09-27T04:18:46;2.50;;;2.13;;
12383;SDS011;6256;63.808;20.336;2022-09-27T04:21:12;2.83;;;2.03;;
12383;SDS011;6256;63.808;20.336;2022-09-27T04:23:38;2.43;;;1.87;;
12383;SDS011;6256;63.808;20.336;2022-09-27T04:26:03;2.23;;;1.90;;
12383;SDS011;6256;63.808;20.336;2022-09-27T04:28:29;2.17;;;1.87;;
12383;SDS011;6256;63.808;20.336;2022-09-27T04:30:56;3.03;;;1.97;;
12383;SDS011;6256;63.808;20.336;2022-09-27T04:33:22;2.67;;;1.87;;
12383;SDS011;6256;63.808;20.336;2022-09-27T04:35:48;2.97;;;2.00;;
12383;SDS011;6256;63.808;20.336;2022-09-27T04:38:32;3.50;;;2.23;;
12383;SDS011;6256;63.808;20.336;2022-09-27T04:40:58;3.00;;;2.00;;
12383;SDS011;6256;63.808;20.336;2022-09-27T04:43:26;3.00;;;2.53;;
12383;SDS011;6256;63.808;20.336;2022-09-27T04:45:52;3.20;;;2.03;;
12383;SDS011;6256;63.808;20.336;2022-09-27T04:48:18;2.27;;;2.00;;
12383;SDS011;6256;63.808;20.336;2022-09-27T04:50:44;3.10;;;1.90;;
12383;SDS011;6256;63.808;20.336;2022-09-27T04:53:13;2.43;;;2.03;;
12383;SDS011;6256;63.808;20.336;2022-09-27T04:55:43;2.00;;;1.80;;
12383;SDS011;6256;63.808;20.336;2022-09-27T04:58:14;2.27;;;1.90;;
12383;SDS011;6256;63.808;20.336;2022-09-27T05:00:40;2.57;;;1.87;;
12383;SDS011;6256;63.808;20.336;2022-09-27T05:03:08;2.40;;;1.97;;
12383;SDS011;6256;63.808;20.336;2022-09-27T05:05:34;3.07;;;1.80;;
12383;SDS011;6256;63.808;20.336;2022-09-27T05:08:00;3.60;;;2.30;;
12383;SDS011;6256;63.808;20.336;2022-09-27T05:10:26;2.10;;;1.90;;
12383;SDS011;6256;63.808;20.336;2022-09-27T05:12:51;3.57;;;2.10;;
12383;SDS011;6256;63.808;20.336;2022-09-27T05:15:17;3.03;;;2.10;;
12383;SDS011;6256;63.808;20.336;2022-09-27T05:17:43;3.03;;;2.43;;
12383;SDS011;6256;63.808;20.336;2022-09-27T05:20:09;3.57;;;2.20;;
12383;SDS011;6256;63.808;20.336;2022-09-27T05:22:35;2.60;;;1.87;;
12383;SDS011;6256;63.808;20.336;2022-09-27T05:25:03;2.37;;;1.93;;
12383;SDS011;6256;63.808;20.336;2022-09-27T05:27:29;3.30;;;2.10;;
12383;SDS011;6256;63.808;20.336;2022-09-27T05:29:55;2.40;;;2.07;;
12383;SDS011;6256;63.808;20.336;2022-09-27T05:32:21;3.07;;;2.07;;
12383;SDS011;6256;63.808;20.336;2022-09-27T05:34:47;3.07;;;2.17;;
12383;SDS011;6256;63.808;20.336;2022-09-27T05:37:13;4.10;;;2.33;;
12383;SDS011;6256;63.808;20.336;2022-09-27T05:39:39;2.10;;;1.90;;
12383;SDS011;6256;63.808;20.336;2022-09-27T05:42:04;2.60;;;1.77;;
12383;SDS011;6256;63.808;20.336;2022-09-27T05:44:33;2.23;;;2.00;;
12383;SDS011;6256;63.808;20.336;2022-09-27T05:47:02;2.03;;;1.87;;
12383;SDS011;6256;63.808;20.336;2022-09-27T05:49:28;2.77;;;2.23;;
12383;SDS011;6256;63.808;20.336;2022-09-27T05:51:54;2.20;;;2.00;;
12383;SDS011;6256;63.808;20.336;2022-09-27T05:54:22;2.67;;;2.00;;
12383;SDS011;6256;63.808;20.336;2022-09-27T05:56:48;3.03;;;2.03;;
12383;SDS011;6256;63.808;20.336;2022-09-27T05:59:14;2.00;;;1.70;;
12383;SDS011;6256;63.808;20.336;2022-09-27T06:01:39;2.23;;;1.87;;
12383;SDS011;6256;63.808;20.336;2022-09-27T06:04:05;1.77;;;1.60;;
12383;SDS011;6256;63.808;20.336;2022-09-27T06:06:37;1.73;;;1.50;;
12383;SDS011;6256;63.808;20.336;2022-09-27T06:09:02;1.90;;;1.63;;
12383;SDS011;6256;63.808;20.336;2022-09-27T06:11:28;1.87;;;1.73;;
12383;SDS011;6256;63.808;20.336;2022-09-27T06:13:54;1.63;;;1.53;;
12383;SDS011;6256;63.808;20.336;2022-09-27T06:16:20;2.47;;;2.00;;
12383;SDS011;6256;63.808;20.336;2022-09-27T06:18:45;2.43;;;2.03;;
12383;SDS011;6256;63.808;20.336;2022-09-27T06:21:11;3.17;;;1.60;;
12383;SDS011;6256;63.808;20.336;2022-09-27T06:23:37;2.33;;;1.87;;
12383;SDS011;6256;63.808;20.336;2022-09-27T06:26:04;2.47;;;2.20;;
12383;SDS011;6256;63.808;20.336;2022-09-27T06:28:32;2.57;;;1.70;;
12383;SDS011;6256;63.808;20.336;2022-09-27T06:31:01;2.27;;;1.70;;
12383;SDS011;6256;63.808;20.336;2022-09-27T06:33:29;2.00;;;1.80;;
12383;SDS011;6256;63.808;20.336;2022-09-27T06:35:54;2.40;;;1.87;;
12383;SDS011;6256;63.808;20.336;2022-09-27T06:38:20;2.00;;;1.57;;
12383;SDS011;6256;63.808;20.336;2022-09-27T06:40:47;1.60;;;1.50;;
12383;SDS011;6256;63.808;20.336;2022-09-27T06:43:14;2.57;;;2.00;;
12383;SDS011;6256;63.808;20.336;2022-09-27T06:45:41;1.73;;;1.57;;
12383;SDS011;6256;63.808;20.336;2022-09-27T06:48:07;1.80;;;1.70;;
12383;SDS011;6256;63.808;20.336;2022-09-27T06:50:37;3.23;;;1.90;;
12383;SDS011;6256;63.808;20.336;2022-09-27T06:53:04;2.33;;;1.90;;
12383;SDS011;6256;63.808;20.336;2022-09-27T06:55:31;1.87;;;1.67;;
12383;SDS011;6256;63.808;20.336;2022-09-27T06:57:58;2.23;;;1.60;;
12383;SDS011;6256;63.808;20.336;2022-09-27T07:00:42;1.87;;;1.70;;
12383;SDS011;6256;63.808;20.336;2022-09-27T07:03:11;1.70;;;1.60;;
12383;SDS011;6256;63.808;20.336;2022-09-27T07:05:38;1.73;;;1.63;;
12383;SDS011;6256;63.808;20.336;2022-09-27T07:08:06;1.93;;;1.70;;
12383;SDS011;6256;63.808;20.336;2022-09-27T07:10:37;1.60;;;1.50;;
12383;SDS011;6256;63.808;20.336;2022-09-27T07:13:08;1.90;;;1.30;;
12383;SDS011;6256;63.808;20.336;2022-09-27T07:15:35;1.73;;;1.60;;
12383;SDS011;6256;63.808;20.336;2022-09-27T07:18:04;1.93;;;1.20;;
12383;SDS011;6256;63.808;20.336;2022-09-27T07:20:31;1.70;;;1.50;;
12383;SDS011;6256;63.808;20.336;2022-09-27T07:22:58;2.00;;;1.70;;
12383;SDS011;6256;63.808;20.336;2022-09-27T07:25:24;1.40;;;1.30;;
12383;SDS011;6256;63.808;20.336;2022-09-27T07:27:50;1.90;;;1.50;;
12383;SDS011;6256;63.808;20.336;2022-09-27T07:30:19;1.90;;;1.77;;
12383;SDS011;6256;63.808;20.336;2022-09-27T07:32:45;1.70;;;1.60;;
12383;SDS011;6256;63.808;20.336;2022-09-27T07:35:12;1.80;;;1.30;;
12383;SDS011;6256;63.808;20.336;2022-09-27T07:37:39;4.13;;;1.50;;
12383;SDS011;6256;63.808;20.336;2022-09-27T07:40:06;3.07;;;1.50;;
12383;SDS011;6256;63.808;20.336;2022-09-27T07:42:33;2.47;;;1.90;;
12383;SDS011;6256;63.808;20.336;2022-09-27T07:45:04;1.83;;;1.50;;
12383;SDS011;6256;63.808;20.336;2022-09-27T07:47:30;1.87;;;1.67;;
12383;SDS011;6256;63.808;20.336;2022-09-27T07:49:56;1.50;;;1.40;;
12383;SDS011;6256;63.808;20.336;2022-09-27T07:52:22;1.50;;;1.40;;
12383;SDS011;6256;63.808;20.336;2022-09-27T07:54:48;2.10;;;1.90;;
12383;SDS011;6256;63.808;20.336;2022-09-27T07:57:14;1.83;;;1.53;;
12383;SDS011;6256;63.808;20.336;2022-09-27T07:59:40;1.93;;;1.60;;
12383;SDS011;6256;63.808;20.336;2022-09-27T08:02:08;1.40;;;1.30;;
12383;SDS011;6256;63.808;20.336;2022-09-27T08:04:39;1.80;;;1.43;;
12383;SDS011;6256;63.808;20.336;2022-09-27T08:07:07;1.63;;;1.50;;
12383;SDS011;6256;63.808;20.336;2022-09-27T08:09:34;1.57;;;1.30;;
12383;SDS011;6256;63.808;20.336;2022-09-27T08:12:00;1.77;;;1.50;;
12383;SDS011;6256;63.808;20.336;2022-09-27T08:14:25;1.40;;;1.20;;
12383;SDS011;6256;63.808;20.336;2022-09-27T08:16:51;2.87;;;1.47;;
12383;SDS011;6256;63.808;20.336;2022-09-27T08:19:17;1.50;;;1.40;;
12383;SDS011;6256;63.808;20.336;2022-09-27T08:21:43;1.77;;;1.60;;
12383;SDS011;6256;63.808;20.336;2022-09-27T08:24:09;1.60;;;1.40;;
12383;SDS011;6256;63.808;20.336;2022-09-27T08:26:35;1.97;;;1.40;;
12383;SDS011;6256;63.808;20.336;2022-09-27T08:29:00;2.00;;;1.43;;
12383;SDS011;6256;63.808;20.336;2022-09-27T08:31:29;1.67;;;1.40;;
12383;SDS011;6256;63.808;20.336;2022-09-27T08:33:55;2.23;;;1.40;;
12383;SDS011;6256;63.808;20.336;2022-09-27T08:36:22;2.20;;;1.30;;
12383;SDS011;6256;63.808;20.336;2022-09-27T08:38:48;1.13;;;1.00;;
12383;SDS011;6256;63.808;20.336;2022-09-27T08:52:00;1.57;;;1.20;;
12383;SDS011;6256;63.808;20.336;2022-09-27T08:54:30;1.20;;;1.10;;
12383;SDS011;6256;63.808;20.336;2022-09-27T08:57:02;2.00;;;1.30;;
12383;SDS011;6256;63.808;20.336;2022-09-27T08:59:35;2.33;;;1.40;;
12383;SDS011;6256;63.808;20.336;2022-09-27T09:02:08;1.80;;;1.23;;
12383;SDS011;6256;63.808;20.336;2022-09-27T09:04:56;1.63;;;1.40;;
12383;SDS011;6256;63.808;20.336;2022-09-27T09:07:41;1.40;;;1.13;;
12383;SDS011;6256;63.808;20.336;2022-09-27T09:10:43;1.17;;;1.05;;
12383;SDS011;6256;63.808;20.336;2022-09-27T09:16:32;1.17;;;1.08;;
12383;SDS011;6256;63.808;20.336;2022-09-27T09:24:35;2.00;;;1.10;;
12383;SDS011;6256;63.808;20.336;2022-09-27T09:35:41;2.65;;;1.40;;
12383;SDS011;6256;63.808;20.336;2022-09-27T09:38:17;1.38;;;1.27;;
12383;SDS011;6256;63.808;20.336;2022-09-27T09:40:57;1.50;;;1.25;;
12383;SDS011;6256;63.808;20.336;2022-09-27T09:43:35;1.42;;;1.33;;
12383;SDS011;6256;63.808;20.336;2022-09-27T09:48:46;2.05;;;1.63;;
12383;SDS011;6256;63.808;20.336;2022-09-27T09:51:22;2.03;;;1.65;;
12383;SDS011;6256;63.808;20.336;2022-09-27T09:54:06;2.90;;;1.58;;
12383;SDS011;6256;63.808;20.336;2022-09-27T09:56:45;3.47;;;1.60;;
12383;SDS011;6256;63.808;20.336;2022-09-27T10:01:50;1.60;;;1.40;;
12383;SDS011;6256;63.808;20.336;2022-09-27T10:04:21;1.90;;;1.40;;
12383;SDS011;6256;63.808;20.336;2022-09-27T10:06:49;1.30;;;1.20;;
12383;SDS011;6256;63.808;20.336;2022-09-27T10:09:16;1.70;;;1.45;;
12383;SDS011;6256;63.808;20.336;2022-09-27T10:11:48;2.78;;;1.48;;
12383;SDS011;6256;63.808;20.336;2022-09-27T10:14:15;1.75;;;1.65;;
12383;SDS011;6256;63.808;20.336;2022-09-27T10:16:45;1.70;;;1.40;;
12383;SDS011;6256;63.808;20.336;2022-09-27T10:19:17;2.17;;;1.42;;
12383;SDS011;6256;63.808;20.336;2022-09-27T10:21:50;1.50;;;1.40;;
12383;SDS011;6256;63.808;20.336;2022-09-27T10:24:17;2.38;;;1.50;;
12383;SDS011;6256;63.808;20.336;2022-09-27T10:26:44;1.58;;;1.40;;
12383;SDS011;6256;63.808;20.336;2022-09-27T10:31:44;2.47;;;1.42;;
12383;SDS011;6256;63.808;20.336;2022-09-27T10:37:04;2.28;;;1.42;;
12383;SDS011;6256;63.808;20.336;2022-09-27T10:39:36;1.73;;;1.38;;
12383;SDS011;6256;63.808;20.336;2022-09-27T10:44:55;2.83;;;1.30;;
12383;SDS011;6256;63.808;20.336;2022-09-27T10:47:22;1.73;;;1.60;;
12383;SDS011;6256;63.808;20.336;2022-09-27T10:49:50;1.70;;;1.38;;
12383;SDS011;6256;63.808;20.336;2022-09-27T10:52:20;1.40;;;1.30;;
12383;SDS011;6256;63.808;20.336;2022-09-27T10:55:30;2.10;;;1.30;;
12383;SDS011;6256;63.808;20.336;2022-09-27T10:57:47;1.88;;;1.38;;
12383;SDS011;6256;63.808;20.336;2022-09-27T11:00:25;1.42;;;1.33;;
12383;SDS011;6256;63.808;20.336;2022-09-27T11:02:58;1.60;;;1.50;;
12383;SDS011;6256;63.808;20.336;2022-09-27T11:05:36;1.75;;;1.40;;
12383;SDS011;6256;63.808;20.336;2022-09-27T11:10:58;2.92;;;1.40;;
12383;SDS011;6256;63.808;20.336;2022-09-27T11:13:26;1.40;;;1.30;;
12383;SDS011;6256;63.808;20.336;2022-09-27T11:30:10;1.70;;;1.60;;
12383;SDS011;6256;63.808;20.336;2022-09-27T11:46:29;2.70;;;1.50;;
12383;SDS011;6256;63.808;20.336;2022-09-27T11:52:14;1.50;;;1.40;;
12383;SDS011;6256;63.808;20.336;2022-09-27T11:55:19;2.23;;;1.30;;
12383;SDS011;6256;63.808;20.336;2022-09-27T11:58:16;1.60;;;1.50;;
12383;SDS011;6256;63.808;20.336;2022-09-27T12:06:21;2.57;;;1.50;;
12383;SDS011;6256;63.808;20.336;2022-09-27T12:11:59;2.53;;;1.80;;
12383;SDS011;6256;63.808;20.336;2022-09-27T12:16:59;1.63;;;1.53;;
12383;SDS011;6256;63.808;20.336;2022-09-27T12:19:36;1.70;;;1.57;;
12383;SDS011;6256;63.808;20.336;2022-09-27T12:22:09;1.90;;;1.60;;
12383;SDS011;6256;63.808;20.336;2022-09-27T12:24:39;1.80;;;1.70;;
12383;SDS011;6256;63.808;20.336;2022-09-27T12:27:08;1.67;;;1.57;;
12383;SDS011;6256;63.808;20.336;2022-09-27T12:29:48;2.30;;;1.83;;
12383;SDS011;6256;63.808;20.336;2022-09-27T12:32:23;3.07;;;1.70;;
12383;SDS011;6256;63.808;20.336;2022-09-27T12:34:55;2.10;;;1.90;;
12383;SDS011;6256;63.808;20.336;2022-09-27T12:37:26;1.73;;;1.63;;
12383;SDS011;6256;63.808;20.336;2022-09-27T12:51:23;3.90;;;2.00;;
12383;SDS011;6256;63.808;20.336;2022-09-27T13:02:49;1.80;;;1.70;;
12383;SDS011;6256;63.808;20.336;2022-09-27T13:05:41;1.53;;;1.43;;
12383;SDS011;6256;63.808;20.336;2022-09-27T13:11:24;1.60;;;1.50;;
12383;SDS011;6256;63.808;20.336;2022-09-27T13:14:03;1.92;;;1.52;;
12383;SDS011;6256;63.808;20.336;2022-09-27T13:16:30;1.60;;;1.50;;
12383;SDS011;6256;63.808;20.336;2022-09-27T13:19:15;1.70;;;1.60;;
12383;SDS011;6256;63.808;20.336;2022-09-27T13:22:05;1.70;;;1.52;;
12383;SDS011;6256;63.808;20.336;2022-09-27T13:35:34;2.80;;;1.80;;
12383;SDS011;6256;63.808;20.336;2022-09-27T13:38:00;1.70;;;1.60;;
12383;SDS011;6256;63.808;20.336;2022-09-27T13:40:28;1.85;;;1.63;;
12383;SDS011;6256;63.808;20.336;2022-09-27T13:43:14;2.33;;;1.70;;
12383;SDS011;6256;63.808;20.336;2022-09-27T13:45:54;1.50;;;1.40;;
12383;SDS011;6256;63.808;20.336;2022-09-27T13:51:05;1.50;;;1.40;;
12383;SDS011;6256;63.808;20.336;2022-09-27T13:54:00;1.33;;;1.20;;
12383;SDS011;6256;63.808;20.336;2022-09-27T14:01:51;2.90;;;1.75;;
12383;SDS011;6256;63.808;20.336;2022-09-27T14:04:40;1.80;;;1.70;;
12383;SDS011;6256;63.808;20.336;2022-09-27T14:07:16;2.97;;;1.80;;
12383;SDS011;6256;63.808;20.336;2022-09-27T14:09:44;2.07;;;1.70;;
12383;SDS011;6256;63.808;20.336;2022-09-27T14:12:32;1.95;;;1.77;;
12383;SDS011;6256;63.808;20.336;2022-09-27T14:15:00;1.93;;;1.50;;
12383;SDS011;6256;63.808;20.336;2022-09-27T14:17:28;2.43;;;1.70;;
12383;SDS011;6256;63.808;20.336;2022-09-27T14:19:57;2.53;;;1.70;;
12383;SDS011;6256;63.808;20.336;2022-09-27T14:22:23;2.40;;;2.00;;
12383;SDS011;6256;63.808;20.336;2022-09-27T14:24:50;1.93;;;1.50;;
12383;SDS011;6256;63.808;20.336;2022-09-27T14:27:21;2.47;;;1.60;;
12383;SDS011;6256;63.808;20.336;2022-09-27T14:29:57;2.07;;;1.63;;
12383;SDS011;6256;63.808;20.336;2022-09-27T14:32:26;2.30;;;2.00;;
12383;SDS011;6256;63.808;20.336;2022-09-27T14:35:12;2.03;;;1.77;;
12383;SDS011;6256;63.808;20.336;2022-09-27T14:38:01;2.30;;;1.70;;
12383;SDS011;6256;63.808;20.336;2022-09-27T14:40:53;2.30;;;2.00;;
12383;SDS011;6256;63.808;20.336;2022-09-27T14:43:24;3.13;;;2.00;;
12383;SDS011;6256;63.808;20.336;2022-09-27T14:46:01;2.07;;;1.80;;
12383;SDS011;6256;63.808;20.336;2022-09-27T14:48:36;2.90;;;1.70;;
12383;SDS011;6256;63.808;20.336;2022-09-27T14:53:40;2.40;;;2.13;;
12383;SDS011;6256;63.808;20.336;2022-09-27T14:56:12;2.10;;;1.70;;
12383;SDS011;6256;63.808;20.336;2022-09-27T14:58:52;2.10;;;1.90;;
12383;SDS011;6256;63.808;20.336;2022-09-27T15:01:26;2.60;;;2.10;;
12383;SDS011;6256;63.808;20.336;2022-09-27T15:03:53;2.53;;;1.90;;
12383;SDS011;6256;63.808;20.336;2022-09-27T15:06:19;2.30;;;2.07;;
12383;SDS011;6256;63.808;20.336;2022-09-27T15:08:45;2.10;;;1.90;;
12383;SDS011;6256;63.808;20.336;2022-09-27T15:11:13;2.00;;;1.80;;
12383;SDS011;6256;63.808;20.336;2022-09-27T15:13:41;2.93;;;2.07;;
12383;SDS011;6256;63.808;20.336;2022-09-27T15:16:12;2.10;;;1.73;;
12383;SDS011;6256;63.808;20.336;2022-09-27T15:18:46;2.27;;;2.03;;
12383;SDS011;6256;63.808;20.336;2022-09-27T15:21:33;2.77;;;2.03;;
12383;SDS011;6256;63.808;20.336;2022-09-27T15:24:01;2.53;;;1.93;;
12383;SDS011;6256;63.808;20.336;2022-09-27T15:26:37;2.33;;;1.80;;
12383;SDS011;6256;63.808;20.336;2022-09-27T15:29:04;4.00;;;2.10;;
12383;SDS011;6256;63.808;20.336;2022-09-27T15:31:31;2.07;;;1.80;;
12383;SDS011;6256;63.808;20.336;2022-09-27T15:33:59;1.73;;;1.63;;
12383;SDS011;6256;63.808;20.336;2022-09-27T15:39:18;3.17;;;1.83;;
12383;SDS011;6256;63.808;20.336;2022-09-27T15:52:46;2.80;;;1.90;;
12383;SDS011;6256;63.808;20.336;2022-09-27T15:55:20;3.20;;;2.30;;
12383;SDS011;6256;63.808;20.336;2022-09-27T15:58:03;2.20;;;2.00;;
12383;SDS011;6256;63.808;20.336;2022-09-27T16:00:32;2.97;;;2.07;;
12383;SDS011;6256;63.808;20.336;2022-09-27T16:02:59;2.77;;;2.10;;
12383;SDS011;6256;63.808;20.336;2022-09-27T16:05:25;4.10;;;1.80;;
12383;SDS011;6256;63.808;20.336;2022-09-27T16:07:53;1.80;;;1.70;;
12383;SDS011;6256;63.808;20.336;2022-09-27T16:10:29;2.20;;;2.00;;
12383;SDS011;6256;63.808;20.336;2022-09-27T16:13:01;3.00;;;2.13;;
12383;SDS011;6256;63.808;20.336;2022-09-27T16:15:27;2.83;;;2.17;;
12383;SDS011;6256;63.808;20.336;2022-09-27T16:17:53;2.70;;;2.10;;
12383;SDS011;6256;63.808;20.336;2022-09-27T16:20:20;2.40;;;2.10;;
12383;SDS011;6256;63.808;20.336;2022-09-27T16:22:49;3.70;;;2.27;;
12383;SDS011;6256;63.808;20.336;2022-09-27T16:25:18;2.23;;;2.00;;
12383;SDS011;6256;63.808;20.336;2022-09-27T16:27:45;2.40;;;2.20;;
12383;SDS011;6256;63.808;20.336;2022-09-27T16:30:12;2.83;;;2.33;;
12383;SDS011;6256;63.808;20.336;2022-09-27T16:32:41;2.27;;;2.07;;
12383;SDS011;6256;63.808;20.336;2022-09-27T16:35:12;3.03;;;2.07;;
12383;SDS011;6256;63.808;20.336;2022-09-27T16:37:38;2.57;;;2.00;;
12383;SDS011;6256;63.808;20.336;2022-09-27T16:40:05;2.53;;;1.97;;
12383;SDS011;6256;63.808;20.336;2022-09-27T16:42:35;2.63;;;2.17;;
12383;SDS011;6256;63.808;20.336;2022-09-27T16:45:02;3.33;;;2.40;;
12383;SDS011;6256;63.808;20.336;2022-09-27T16:47:29;2.57;;;2.00;;
12383;SDS011;6256;63.808;20.336;2022-09-27T16:49:55;2.47;;;2.10;;
12383;SDS011;6256;63.808;20.336;2022-09-27T16:52:40;1.93;;;1.73;;
12383;SDS011;6256;63.808;20.336;2022-09-27T16:55:07;2.60;;;2.10;;
12383;SDS011;6256;63.808;20.336;2022-09-27T16:57:34;2.97;;;2.13;;
12383;SDS011;6256;63.808;20.336;2022-09-27T17:00:00;2.90;;;2.07;;
12383;SDS011;6256;63.808;20.336;2022-09-27T17:02:26;3.73;;;2.37;;
12383;SDS011;6256;63.808;20.336;2022-09-27T17:04:52;4.00;;;2.50;;
12383;SDS011;6256;63.808;20.336;2022-09-27T17:07:19;2.80;;;2.30;;
12383;SDS011;6256;63.808;20.336;2022-09-27T17:09:45;3.77;;;2.30;;
12383;SDS011;6256;63.808;20.336;2022-09-27T17:12:11;2.77;;;2.23;;
12383;SDS011;6256;63.808;20.336;2022-09-27T17:14:38;2.87;;;2.03;;
12383;SDS011;6256;63.808;20.336;2022-09-27T17:17:04;3.90;;;2.27;;
12383;SDS011;6256;63.808;20.336;2022-09-27T17:19:30;2.97;;;2.17;;
12383;SDS011;6256;63.808;20.336;2022-09-27T17:21:57;2.77;;;2.33;;
12383;SDS011;6256;63.808;20.336;2022-09-27T17:24:23;2.87;;;2.57;;
12383;SDS011;6256;63.808;20.336;2022-09-27T17:26:49;3.23;;;2.47;;
12383;SDS011;6256;63.808;20.336;2022-09-27T17:29:15;2.73;;;2.20;;
12383;SDS011;6256;63.808;20.336;2022-09-27T17:31:41;3.90;;;2.37;;
12383;SDS011;6256;63.808;20.336;2022-09-27T17:34:09;2.83;;;2.50;;
12383;SDS011;6256;63.808;20.336;2022-09-27T17:36:40;3.60;;;2.50;;
12383;SDS011;6256;63.808;20.336;2022-09-27T17:39:13;4.20;;;2.53;;
12383;SDS011;6256;63.808;20.336;2022-09-27T17:41:40;2.40;;;2.13;;
12383;SDS011;6256;63.808;20.336;2022-09-27T17:44:11;3.13;;;2.50;;
12383;SDS011;6256;63.808;20.336;2022-09-27T17:46:38;2.93;;;2.40;;
12383;SDS011;6256;63.808;20.336;2022-09-27T17:49:04;5.23;;;2.60;;
12383;SDS011;6256;63.808;20.336;2022-09-27T17:51:49;3.00;;;2.50;;
12383;SDS011;6256;63.808;20.336;2022-09-27T17:54:17;4.33;;;2.73;;
12383;SDS011;6256;63.808;20.336;2022-09-27T17:56:45;3.47;;;2.80;;
12383;SDS011;6256;63.808;20.336;2022-09-27T17:59:12;3.97;;;2.97;;
12383;SDS011;6256;63.808;20.336;2022-09-27T18:01:42;3.57;;;2.33;;
12383;SDS011;6256;63.808;20.336;2022-09-27T18:04:10;4.07;;;2.60;;
12383;SDS011;6256;63.808;20.336;2022-09-27T18:06:38;5.50;;;3.20;;
12383;SDS011;6256;63.808;20.336;2022-09-27T18:09:08;3.77;;;2.83;;
12383;SDS011;6256;63.808;20.336;2022-09-27T18:11:36;3.77;;;2.47;;